sensor_id;sensor_type;location;lat;lon;timestamp;P1;durP1;ratioP1;P2;durP2;ratioP2
6642;SDS011;3357;48.050;7.800;2022-07-23T00:02:20;5.87;;;5.33;;
6642;SDS011;3357;48.050;7.800;2022-07-23T00:04:45;6.37;;;5.87;;
6642;SDS011;3357;48.050;7.800;2022-07-23T00:07:11;5.77;;;5.27;;
6642;SDS011;3357;48.050;7.800;2022-07-23T00:09:36;8.37;;;6.50;;
6642;SDS011;3357;48.050;7.800;2022-07-23T00:12:01;11.33;;;6.00;;
6642;SDS011;3357;48.050;7.800;2022-07-23T00:14:27;8.47;;;5.80;;
6642;SDS011;3357;48.050;7.800;2022-07-23T00:16:52;8.83;;;6.67;;
6642;SDS011;3357;48.050;7.800;2022-07-23T00:19:17;8.00;;;5.50;;
6642;SDS011;3357;48.050;7.800;2022-07-23T00:21:43;6.10;;;5.70;;
6642;SDS011;3357;48.050;7.800;2022-07-23T00:24:08;6.97;;;6.13;;
6642;SDS011;3357;48.050;7.800;2022-07-23T00:26:33;6.10;;;5.60;;
6642;SDS011;3357;48.050;7.800;2022-07-23T00:28:58;6.33;;;5.70;;
6642;SDS011;3357;48.050;7.800;2022-07-23T00:31:25;11.20;;;6.57;;
6642;SDS011;3357;48.050;7.800;2022-07-23T00:33:50;7.73;;;6.07;;
6642;SDS011;3357;48.050;7.800;2022-07-23T00:36:17;7.00;;;6.20;;
6642;SDS011;3357;48.050;7.800;2022-07-23T00:38:42;7.00;;;5.97;;
6642;SDS011;3357;48.050;7.800;2022-07-23T00:41:07;7.60;;;5.90;;
6642;SDS011;3357;48.050;7.800;2022-07-23T00:43:32;6.73;;;6.03;;
6642;SDS011;3357;48.050;7.800;2022-07-23T00:45:58;9.60;;;5.87;;
6642;SDS011;3357;48.050;7.800;2022-07-23T00:48:23;7.40;;;5.27;;
6642;SDS011;3357;48.050;7.800;2022-07-23T00:50:48;5.70;;;5.30;;
6642;SDS011;3357;48.050;7.800;2022-07-23T00:53:14;7.17;;;5.20;;
6642;SDS011;3357;48.050;7.800;2022-07-23T00:55:40;5.60;;;5.10;;
6642;SDS011;3357;48.050;7.800;2022-07-23T00:58:05;10.47;;;5.43;;
6642;SDS011;3357;48.050;7.800;2022-07-23T01:00:31;4.73;;;4.40;;
6642;SDS011;3357;48.050;7.800;2022-07-23T01:02:56;6.03;;;5.43;;
6642;SDS011;3357;48.050;7.800;2022-07-23T01:05:21;5.83;;;5.23;;
6642;SDS011;3357;48.050;7.800;2022-07-23T01:07:50;6.20;;;5.53;;
6642;SDS011;3357;48.050;7.800;2022-07-23T01:10:16;15.63;;;6.60;;
6642;SDS011;3357;48.050;7.800;2022-07-23T01:13:04;7.70;;;6.20;;
6642;SDS011;3357;48.050;7.800;2022-07-23T01:15:30;11.03;;;5.80;;
6642;SDS011;3357;48.050;7.800;2022-07-23T01:17:57;7.20;;;5.70;;
6642;SDS011;3357;48.050;7.800;2022-07-23T01:20:23;9.50;;;6.90;;
6642;SDS011;3357;48.050;7.800;2022-07-23T01:22:48;8.60;;;5.90;;
6642;SDS011;3357;48.050;7.800;2022-07-23T01:25:17;8.03;;;6.27;;
6642;SDS011;3357;48.050;7.800;2022-07-23T01:27:42;11.73;;;5.77;;
6642;SDS011;3357;48.050;7.800;2022-07-23T01:30:08;14.80;;;6.07;;
6642;SDS011;3357;48.050;7.800;2022-07-23T01:32:34;10.70;;;6.20;;
6642;SDS011;3357;48.050;7.800;2022-07-23T01:34:59;6.97;;;6.00;;
6642;SDS011;3357;48.050;7.800;2022-07-23T01:37:26;8.53;;;7.00;;
6642;SDS011;3357;48.050;7.800;2022-07-23T01:39:51;8.73;;;6.70;;
6642;SDS011;3357;48.050;7.800;2022-07-23T01:42:18;6.93;;;6.27;;
6642;SDS011;3357;48.050;7.800;2022-07-23T01:44:44;7.60;;;6.30;;
6642;SDS011;3357;48.050;7.800;2022-07-23T01:47:09;8.30;;;7.10;;
6642;SDS011;3357;48.050;7.800;2022-07-23T01:49:34;7.90;;;5.83;;
6642;SDS011;3357;48.050;7.800;2022-07-23T01:52:00;7.63;;;6.80;;
6642;SDS011;3357;48.050;7.800;2022-07-23T01:54:28;11.83;;;6.87;;
6642;SDS011;3357;48.050;7.800;2022-07-23T01:56:55;7.23;;;6.53;;
6642;SDS011;3357;48.050;7.800;2022-07-23T01:59:21;6.93;;;6.43;;
6642;SDS011;3357;48.050;7.800;2022-07-23T02:01:47;8.13;;;7.30;;
6642;SDS011;3357;48.050;7.800;2022-07-23T02:04:13;8.77;;;7.53;;
6642;SDS011;3357;48.050;7.800;2022-07-23T02:06:43;8.37;;;6.70;;
6642;SDS011;3357;48.050;7.800;2022-07-23T02:09:08;9.50;;;7.00;;
6642;SDS011;3357;48.050;7.800;2022-07-23T02:11:35;7.97;;;7.17;;
6642;SDS011;3357;48.050;7.800;2022-07-23T02:14:01;7.93;;;7.13;;
6642;SDS011;3357;48.050;7.800;2022-07-23T02:16:26;8.07;;;7.27;;
6642;SDS011;3357;48.050;7.800;2022-07-23T02:18:51;7.83;;;7.10;;
6642;SDS011;3357;48.050;7.800;2022-07-23T02:21:16;7.90;;;6.67;;
6642;SDS011;3357;48.050;7.800;2022-07-23T02:23:42;8.63;;;7.17;;
6642;SDS011;3357;48.050;7.800;2022-07-23T02:26:07;12.33;;;7.07;;
6642;SDS011;3357;48.050;7.800;2022-07-23T02:28:32;15.27;;;7.40;;
6642;SDS011;3357;48.050;7.800;2022-07-23T02:30:59;7.23;;;6.53;;
6642;SDS011;3357;48.050;7.800;2022-07-23T02:33:24;8.50;;;6.53;;
6642;SDS011;3357;48.050;7.800;2022-07-23T02:35:59;9.83;;;6.63;;
6642;SDS011;3357;48.050;7.800;2022-07-23T02:38:24;9.77;;;6.80;;
6642;SDS011;3357;48.050;7.800;2022-07-23T02:40:50;8.90;;;5.97;;
6642;SDS011;3357;48.050;7.800;2022-07-23T02:43:16;8.47;;;7.20;;
6642;SDS011;3357;48.050;7.800;2022-07-23T02:45:42;7.37;;;6.63;;
6642;SDS011;3357;48.050;7.800;2022-07-23T02:48:07;8.93;;;6.60;;
6642;SDS011;3357;48.050;7.800;2022-07-23T02:50:34;7.13;;;6.43;;
6642;SDS011;3357;48.050;7.800;2022-07-23T02:52:59;7.40;;;6.70;;
6642;SDS011;3357;48.050;7.800;2022-07-23T02:55:24;6.03;;;5.43;;
6642;SDS011;3357;48.050;7.800;2022-07-23T02:57:50;12.10;;;6.50;;
6642;SDS011;3357;48.050;7.800;2022-07-23T03:00:15;8.00;;;7.20;;
6642;SDS011;3357;48.050;7.800;2022-07-23T03:02:45;8.90;;;5.93;;
6642;SDS011;3357;48.050;7.800;2022-07-23T03:05:10;7.03;;;6.30;;
6642;SDS011;3357;48.050;7.800;2022-07-23T03:07:35;7.40;;;6.70;;
6642;SDS011;3357;48.050;7.800;2022-07-23T03:10:03;6.97;;;6.40;;
6642;SDS011;3357;48.050;7.800;2022-07-23T03:12:28;7.53;;;6.77;;
6642;SDS011;3357;48.050;7.800;2022-07-23T03:14:54;8.73;;;6.70;;
6642;SDS011;3357;48.050;7.800;2022-07-23T03:17:20;8.43;;;6.90;;
6642;SDS011;3357;48.050;7.800;2022-07-23T03:19:45;12.37;;;7.03;;
6642;SDS011;3357;48.050;7.800;2022-07-23T03:22:11;7.90;;;7.10;;
6642;SDS011;3357;48.050;7.800;2022-07-23T03:24:36;9.37;;;6.40;;
6642;SDS011;3357;48.050;7.800;2022-07-23T03:27:20;10.47;;;7.23;;
6642;SDS011;3357;48.050;7.800;2022-07-23T03:29:46;7.13;;;6.53;;
6642;SDS011;3357;48.050;7.800;2022-07-23T03:32:11;7.50;;;6.80;;
6642;SDS011;3357;48.050;7.800;2022-07-23T03:34:38;7.43;;;6.77;;
6642;SDS011;3357;48.050;7.800;2022-07-23T03:37:03;6.97;;;6.27;;
6642;SDS011;3357;48.050;7.800;2022-07-23T03:39:29;8.03;;;7.23;;
6642;SDS011;3357;48.050;7.800;2022-07-23T03:41:54;8.00;;;6.80;;
6642;SDS011;3357;48.050;7.800;2022-07-23T03:44:20;9.57;;;7.13;;
6642;SDS011;3357;48.050;7.800;2022-07-23T03:46:46;7.03;;;6.43;;
6642;SDS011;3357;48.050;7.800;2022-07-23T03:49:11;7.03;;;6.40;;
6642;SDS011;3357;48.050;7.800;2022-07-23T03:51:36;8.73;;;7.87;;
6642;SDS011;3357;48.050;7.800;2022-07-23T03:54:02;8.83;;;6.80;;
6642;SDS011;3357;48.050;7.800;2022-07-23T03:56:27;11.90;;;7.63;;
6642;SDS011;3357;48.050;7.800;2022-07-23T03:58:52;8.30;;;7.50;;
6642;SDS011;3357;48.050;7.800;2022-07-23T04:01:18;9.13;;;6.97;;
6642;SDS011;3357;48.050;7.800;2022-07-23T04:03:43;7.20;;;6.60;;
6642;SDS011;3357;48.050;7.800;2022-07-23T04:06:09;9.73;;;7.63;;
6642;SDS011;3357;48.050;7.800;2022-07-23T04:08:34;10.23;;;7.47;;
6642;SDS011;3357;48.050;7.800;2022-07-23T04:11:00;9.53;;;7.30;;
6642;SDS011;3357;48.050;7.800;2022-07-23T04:13:26;8.30;;;7.47;;
6642;SDS011;3357;48.050;7.800;2022-07-23T04:15:52;10.20;;;7.67;;
6642;SDS011;3357;48.050;7.800;2022-07-23T04:18:17;9.67;;;7.50;;
6642;SDS011;3357;48.050;7.800;2022-07-23T04:20:43;9.50;;;8.20;;
6642;SDS011;3357;48.050;7.800;2022-07-23T04:23:14;8.77;;;7.67;;
6642;SDS011;3357;48.050;7.800;2022-07-23T04:25:41;9.17;;;7.83;;
6642;SDS011;3357;48.050;7.800;2022-07-23T04:28:11;7.70;;;7.00;;
6642;SDS011;3357;48.050;7.800;2022-07-23T04:30:36;8.33;;;7.63;;
6642;SDS011;3357;48.050;7.800;2022-07-23T04:33:01;9.97;;;8.00;;
6642;SDS011;3357;48.050;7.800;2022-07-23T04:35:32;13.23;;;8.57;;
6642;SDS011;3357;48.050;7.800;2022-07-23T04:37:58;12.50;;;9.60;;
6642;SDS011;3357;48.050;7.800;2022-07-23T04:40:23;10.17;;;8.03;;
6642;SDS011;3357;48.050;7.800;2022-07-23T04:42:48;10.70;;;8.50;;
6642;SDS011;3357;48.050;7.800;2022-07-23T04:45:14;10.33;;;8.90;;
6642;SDS011;3357;48.050;7.800;2022-07-23T04:47:40;9.00;;;8.10;;
6642;SDS011;3357;48.050;7.800;2022-07-23T04:50:07;8.60;;;7.80;;
6642;SDS011;3357;48.050;7.800;2022-07-23T04:52:32;8.87;;;8.03;;
6642;SDS011;3357;48.050;7.800;2022-07-23T04:54:57;11.10;;;8.70;;
6642;SDS011;3357;48.050;7.800;2022-07-23T04:57:22;8.70;;;7.80;;
6642;SDS011;3357;48.050;7.800;2022-07-23T04:59:48;8.30;;;7.23;;
6642;SDS011;3357;48.050;7.800;2022-07-23T05:02:13;9.00;;;8.20;;
6642;SDS011;3357;48.050;7.800;2022-07-23T05:04:38;9.07;;;8.20;;
6642;SDS011;3357;48.050;7.800;2022-07-23T05:07:05;13.80;;;8.50;;
6642;SDS011;3357;48.050;7.800;2022-07-23T05:09:30;10.30;;;8.97;;
6642;SDS011;3357;48.050;7.800;2022-07-23T05:11:55;13.80;;;9.10;;
6642;SDS011;3357;48.050;7.800;2022-07-23T05:14:21;9.73;;;8.83;;
6642;SDS011;3357;48.050;7.800;2022-07-23T05:16:48;9.83;;;8.80;;
6642;SDS011;3357;48.050;7.800;2022-07-23T05:19:14;9.43;;;8.37;;
6642;SDS011;3357;48.050;7.800;2022-07-23T05:21:39;9.63;;;8.70;;
6642;SDS011;3357;48.050;7.800;2022-07-23T05:26:39;10.30;;;9.30;;
6642;SDS011;3357;48.050;7.800;2022-07-23T05:29:04;9.50;;;8.50;;
6642;SDS011;3357;48.050;7.800;2022-07-23T05:31:29;10.10;;;8.50;;
6642;SDS011;3357;48.050;7.800;2022-07-23T05:33:58;10.73;;;9.20;;
6642;SDS011;3357;48.050;7.800;2022-07-23T05:36:23;12.87;;;9.23;;
6642;SDS011;3357;48.050;7.800;2022-07-23T05:38:48;10.50;;;9.40;;
6642;SDS011;3357;48.050;7.800;2022-07-23T05:41:15;12.80;;;9.57;;
6642;SDS011;3357;48.050;7.800;2022-07-23T05:43:40;10.73;;;8.90;;
6642;SDS011;3357;48.050;7.800;2022-07-23T05:46:05;11.57;;;9.20;;
6642;SDS011;3357;48.050;7.800;2022-07-23T05:48:31;9.00;;;8.10;;
6642;SDS011;3357;48.050;7.800;2022-07-23T05:50:56;11.50;;;9.00;;
6642;SDS011;3357;48.050;7.800;2022-07-23T05:53:22;11.00;;;8.50;;
6642;SDS011;3357;48.050;7.800;2022-07-23T05:55:47;12.90;;;8.37;;
6642;SDS011;3357;48.050;7.800;2022-07-23T05:58:26;11.33;;;9.10;;
6642;SDS011;3357;48.050;7.800;2022-07-23T06:00:52;14.40;;;9.97;;
6642;SDS011;3357;48.050;7.800;2022-07-23T06:03:18;10.43;;;9.33;;
6642;SDS011;3357;48.050;7.800;2022-07-23T06:05:43;11.30;;;9.33;;
6642;SDS011;3357;48.050;7.800;2022-07-23T06:08:08;13.80;;;9.60;;
6642;SDS011;3357;48.050;7.800;2022-07-23T06:10:39;8.83;;;7.93;;
6642;SDS011;3357;48.050;7.800;2022-07-23T06:13:04;9.43;;;8.43;;
6642;SDS011;3357;48.050;7.800;2022-07-23T06:15:29;13.40;;;8.47;;
6642;SDS011;3357;48.050;7.800;2022-07-23T06:17:55;9.30;;;8.27;;
6642;SDS011;3357;48.050;7.800;2022-07-23T06:20:20;10.23;;;8.80;;
6642;SDS011;3357;48.050;7.800;2022-07-23T06:22:46;9.50;;;8.60;;
6642;SDS011;3357;48.050;7.800;2022-07-23T06:25:11;9.60;;;8.60;;
6642;SDS011;3357;48.050;7.800;2022-07-23T06:27:36;10.03;;;8.40;;
6642;SDS011;3357;48.050;7.800;2022-07-23T06:30:02;10.50;;;8.97;;
6642;SDS011;3357;48.050;7.800;2022-07-23T06:32:29;10.63;;;8.43;;
6642;SDS011;3357;48.050;7.800;2022-07-23T06:34:55;13.20;;;8.63;;
6642;SDS011;3357;48.050;7.800;2022-07-23T06:37:20;10.23;;;8.13;;
6642;SDS011;3357;48.050;7.800;2022-07-23T06:39:45;10.67;;;8.77;;
6642;SDS011;3357;48.050;7.800;2022-07-23T06:42:11;10.90;;;8.50;;
6642;SDS011;3357;48.050;7.800;2022-07-23T06:44:37;10.87;;;8.40;;
6642;SDS011;3357;48.050;7.800;2022-07-23T06:47:02;9.43;;;8.53;;
6642;SDS011;3357;48.050;7.800;2022-07-23T06:49:28;9.87;;;8.70;;
6642;SDS011;3357;48.050;7.800;2022-07-23T06:51:53;12.23;;;8.27;;
6642;SDS011;3357;48.050;7.800;2022-07-23T06:54:18;9.27;;;8.37;;
6642;SDS011;3357;48.050;7.800;2022-07-23T06:56:44;12.60;;;9.90;;
6642;SDS011;3357;48.050;7.800;2022-07-23T06:59:09;14.60;;;10.67;;
6642;SDS011;3357;48.050;7.800;2022-07-23T07:01:35;15.87;;;10.80;;
6642;SDS011;3357;48.050;7.800;2022-07-23T07:04:00;12.80;;;9.00;;
6642;SDS011;3357;48.050;7.800;2022-07-23T07:06:25;10.60;;;9.50;;
6642;SDS011;3357;48.050;7.800;2022-07-23T07:08:51;12.27;;;9.80;;
6642;SDS011;3357;48.050;7.800;2022-07-23T07:11:16;10.33;;;9.23;;
6642;SDS011;3357;48.050;7.800;2022-07-23T07:13:41;9.70;;;8.47;;
6642;SDS011;3357;48.050;7.800;2022-07-23T07:16:06;11.77;;;9.10;;
6642;SDS011;3357;48.050;7.800;2022-07-23T07:18:32;16.60;;;9.60;;
6642;SDS011;3357;48.050;7.800;2022-07-23T07:20:57;12.53;;;8.70;;
6642;SDS011;3357;48.050;7.800;2022-07-23T07:23:24;9.23;;;8.33;;
6642;SDS011;3357;48.050;7.800;2022-07-23T07:25:49;10.70;;;9.60;;
6642;SDS011;3357;48.050;7.800;2022-07-23T07:28:14;9.90;;;8.90;;
6642;SDS011;3357;48.050;7.800;2022-07-23T07:30:40;15.13;;;7.70;;
6642;SDS011;3357;48.050;7.800;2022-07-23T07:33:07;10.60;;;8.40;;
6642;SDS011;3357;48.050;7.800;2022-07-23T07:35:33;13.60;;;8.50;;
6642;SDS011;3357;48.050;7.800;2022-07-23T07:37:59;8.03;;;7.33;;
6642;SDS011;3357;48.050;7.800;2022-07-23T07:40:24;9.03;;;8.10;;
6642;SDS011;3357;48.050;7.800;2022-07-23T07:42:51;11.30;;;9.00;;
6642;SDS011;3357;48.050;7.800;2022-07-23T07:45:19;10.90;;;9.03;;
6642;SDS011;3357;48.050;7.800;2022-07-23T07:47:45;12.47;;;8.30;;
6642;SDS011;3357;48.050;7.800;2022-07-23T07:50:14;10.00;;;7.87;;
6642;SDS011;3357;48.050;7.800;2022-07-23T07:52:40;11.23;;;8.93;;
6642;SDS011;3357;48.050;7.800;2022-07-23T07:55:06;14.73;;;8.07;;
6642;SDS011;3357;48.050;7.800;2022-07-23T07:57:33;15.20;;;8.07;;
6642;SDS011;3357;48.050;7.800;2022-07-23T07:59:59;11.30;;;8.27;;
6642;SDS011;3357;48.050;7.800;2022-07-23T08:02:24;10.97;;;8.80;;
6642;SDS011;3357;48.050;7.800;2022-07-23T08:04:49;11.70;;;8.50;;
6642;SDS011;3357;48.050;7.800;2022-07-23T08:07:15;9.73;;;8.07;;
6642;SDS011;3357;48.050;7.800;2022-07-23T08:09:40;8.47;;;7.77;;
6642;SDS011;3357;48.050;7.800;2022-07-23T08:12:06;9.47;;;8.23;;
6642;SDS011;3357;48.050;7.800;2022-07-23T08:14:31;11.03;;;8.30;;
6642;SDS011;3357;48.050;7.800;2022-07-23T08:16:57;8.63;;;7.73;;
6642;SDS011;3357;48.050;7.800;2022-07-23T08:19:22;11.17;;;8.13;;
6642;SDS011;3357;48.050;7.800;2022-07-23T08:21:47;8.00;;;7.00;;
6642;SDS011;3357;48.050;7.800;2022-07-23T08:24:12;9.77;;;7.80;;
6642;SDS011;3357;48.050;7.800;2022-07-23T08:26:38;8.43;;;6.83;;
6642;SDS011;3357;48.050;7.800;2022-07-23T08:29:03;9.53;;;7.23;;
6642;SDS011;3357;48.050;7.800;2022-07-23T08:31:28;7.63;;;6.93;;
6642;SDS011;3357;48.050;7.800;2022-07-23T08:33:55;9.10;;;7.23;;
6642;SDS011;3357;48.050;7.800;2022-07-23T08:36:21;8.17;;;7.37;;
6642;SDS011;3357;48.050;7.800;2022-07-23T08:38:46;10.47;;;7.20;;
6642;SDS011;3357;48.050;7.800;2022-07-23T08:41:12;8.20;;;7.23;;
6642;SDS011;3357;48.050;7.800;2022-07-23T08:43:37;8.17;;;7.30;;
6642;SDS011;3357;48.050;7.800;2022-07-23T08:46:03;12.10;;;6.97;;
6642;SDS011;3357;48.050;7.800;2022-07-23T08:48:32;8.23;;;7.40;;
6642;SDS011;3357;48.050;7.800;2022-07-23T08:51:00;10.70;;;8.20;;
6642;SDS011;3357;48.050;7.800;2022-07-23T08:53:27;7.33;;;6.67;;
6642;SDS011;3357;48.050;7.800;2022-07-23T08:55:54;7.13;;;6.53;;
6642;SDS011;3357;48.050;7.800;2022-07-23T08:58:21;10.63;;;7.27;;
6642;SDS011;3357;48.050;7.800;2022-07-23T09:00:46;9.30;;;8.00;;
6642;SDS011;3357;48.050;7.800;2022-07-23T09:03:16;7.73;;;7.03;;
6642;SDS011;3357;48.050;7.800;2022-07-23T09:05:42;9.30;;;7.27;;
6642;SDS011;3357;48.050;7.800;2022-07-23T09:08:14;7.97;;;6.80;;
6642;SDS011;3357;48.050;7.800;2022-07-23T09:10:48;10.20;;;7.23;;
6642;SDS011;3357;48.050;7.800;2022-07-23T09:13:28;6.90;;;6.20;;
6642;SDS011;3357;48.050;7.800;2022-07-23T09:15:55;6.40;;;5.67;;
6642;SDS011;3357;48.050;7.800;2022-07-23T09:18:36;10.00;;;6.50;;
6642;SDS011;3357;48.050;7.800;2022-07-23T09:21:09;8.27;;;6.40;;
6642;SDS011;3357;48.050;7.800;2022-07-23T09:24:09;7.37;;;6.50;;
6642;SDS011;3357;48.050;7.800;2022-07-23T09:26:29;7.37;;;6.80;;
6642;SDS011;3357;48.050;7.800;2022-07-23T09:31:41;7.17;;;6.47;;
6642;SDS011;3357;48.050;7.800;2022-07-23T09:34:12;9.37;;;6.80;;
6642;SDS011;3357;48.050;7.800;2022-07-23T09:36:52;6.83;;;6.10;;
6642;SDS011;3357;48.050;7.800;2022-07-23T09:39:26;7.90;;;7.10;;
6642;SDS011;3357;48.050;7.800;2022-07-23T09:41:52;6.80;;;6.30;;
6642;SDS011;3357;48.050;7.800;2022-07-23T09:44:19;8.20;;;6.93;;
6642;SDS011;3357;48.050;7.800;2022-07-23T09:46:45;8.93;;;7.10;;
6642;SDS011;3357;48.050;7.800;2022-07-23T09:49:19;8.43;;;7.00;;
6642;SDS011;3357;48.050;7.800;2022-07-23T09:51:53;6.60;;;6.00;;
6642;SDS011;3357;48.050;7.800;2022-07-23T09:56:47;6.80;;;6.10;;
6642;SDS011;3357;48.050;7.800;2022-07-23T09:59:13;6.80;;;6.07;;
6642;SDS011;3357;48.050;7.800;2022-07-23T10:01:42;7.07;;;6.40;;
6642;SDS011;3357;48.050;7.800;2022-07-23T10:04:08;7.80;;;7.20;;
6642;SDS011;3357;48.050;7.800;2022-07-23T10:06:36;7.80;;;6.47;;
6642;SDS011;3357;48.050;7.800;2022-07-23T10:09:03;8.57;;;6.77;;
6642;SDS011;3357;48.050;7.800;2022-07-23T10:11:28;9.13;;;6.30;;
6642;SDS011;3357;48.050;7.800;2022-07-23T10:13:54;7.47;;;6.80;;
6642;SDS011;3357;48.050;7.800;2022-07-23T10:16:20;7.00;;;6.30;;
6642;SDS011;3357;48.050;7.800;2022-07-23T10:18:48;6.90;;;6.30;;
6642;SDS011;3357;48.050;7.800;2022-07-23T10:21:16;6.90;;;6.23;;
6642;SDS011;3357;48.050;7.800;2022-07-23T10:26:52;7.00;;;6.30;;
6642;SDS011;3357;48.050;7.800;2022-07-23T10:37:59;6.97;;;6.27;;
6642;SDS011;3357;48.050;7.800;2022-07-23T10:40:36;6.70;;;6.20;;
6642;SDS011;3357;48.050;7.800;2022-07-23T10:43:02;14.63;;;6.40;;
6642;SDS011;3357;48.050;7.800;2022-07-23T10:45:38;7.13;;;6.30;;
6642;SDS011;3357;48.050;7.800;2022-07-23T10:48:20;6.87;;;6.27;;
6642;SDS011;3357;48.050;7.800;2022-07-23T10:56:15;7.07;;;6.27;;
6642;SDS011;3357;48.050;7.800;2022-07-23T10:58:48;7.70;;;6.40;;
6642;SDS011;3357;48.050;7.800;2022-07-23T11:03:59;6.53;;;5.93;;
6642;SDS011;3357;48.050;7.800;2022-07-23T11:06:47;6.83;;;6.20;;
6642;SDS011;3357;48.050;7.800;2022-07-23T11:09:29;6.60;;;6.00;;
6642;SDS011;3357;48.050;7.800;2022-07-23T11:12:37;6.50;;;5.90;;
6642;SDS011;3357;48.050;7.800;2022-07-23T11:15:00;8.27;;;5.73;;
6642;SDS011;3357;48.050;7.800;2022-07-23T11:17:27;6.20;;;5.70;;
6642;SDS011;3357;48.050;7.800;2022-07-23T11:25:13;7.37;;;6.67;;
6642;SDS011;3357;48.050;7.800;2022-07-23T11:27:44;6.57;;;5.40;;
6642;SDS011;3357;48.050;7.800;2022-07-23T11:30:55;6.67;;;6.13;;
6642;SDS011;3357;48.050;7.800;2022-07-23T11:35:33;7.10;;;6.40;;
6642;SDS011;3357;48.050;7.800;2022-07-23T11:38:04;6.27;;;5.77;;
6642;SDS011;3357;48.050;7.800;2022-07-23T11:40:36;8.27;;;6.53;;
6642;SDS011;3357;48.050;7.800;2022-07-23T11:43:06;7.23;;;6.67;;
6642;SDS011;3357;48.050;7.800;2022-07-23T11:45:41;6.63;;;6.03;;
6642;SDS011;3357;48.050;7.800;2022-07-23T11:48:09;6.73;;;6.03;;
6642;SDS011;3357;48.050;7.800;2022-07-23T11:50:41;6.40;;;5.80;;
6642;SDS011;3357;48.050;7.800;2022-07-23T11:53:07;6.60;;;5.77;;
6642;SDS011;3357;48.050;7.800;2022-07-23T11:55:32;6.37;;;5.90;;
6642;SDS011;3357;48.050;7.800;2022-07-23T11:57:58;6.40;;;6.00;;
6642;SDS011;3357;48.050;7.800;2022-07-23T12:00:25;12.07;;;6.90;;
6642;SDS011;3357;48.050;7.800;2022-07-23T12:02:53;6.50;;;6.00;;
6642;SDS011;3357;48.050;7.800;2022-07-23T12:05:26;10.07;;;6.60;;
6642;SDS011;3357;48.050;7.800;2022-07-23T12:07:56;8.23;;;6.60;;
6642;SDS011;3357;48.050;7.800;2022-07-23T12:10:27;7.53;;;6.47;;
6642;SDS011;3357;48.050;7.800;2022-07-23T12:12:56;6.07;;;5.57;;
6642;SDS011;3357;48.050;7.800;2022-07-23T12:15:23;6.50;;;5.67;;
6642;SDS011;3357;48.050;7.800;2022-07-23T12:17:52;7.20;;;6.50;;
6642;SDS011;3357;48.050;7.800;2022-07-23T12:20:22;6.37;;;5.80;;
6642;SDS011;3357;48.050;7.800;2022-07-23T12:22:53;7.23;;;6.63;;
6642;SDS011;3357;48.050;7.800;2022-07-23T12:25:22;8.17;;;6.40;;
6642;SDS011;3357;48.050;7.800;2022-07-23T12:28:03;7.10;;;6.40;;
6642;SDS011;3357;48.050;7.800;2022-07-23T12:30:31;6.63;;;6.03;;
6642;SDS011;3357;48.050;7.800;2022-07-23T12:33:03;6.27;;;5.70;;
6642;SDS011;3357;48.050;7.800;2022-07-23T12:35:36;8.63;;;6.37;;
6642;SDS011;3357;48.050;7.800;2022-07-23T12:38:11;8.73;;;6.30;;
6642;SDS011;3357;48.050;7.800;2022-07-23T12:40:42;11.53;;;6.33;;
6642;SDS011;3357;48.050;7.800;2022-07-23T12:43:18;7.10;;;6.40;;
6642;SDS011;3357;48.050;7.800;2022-07-23T12:45:54;6.80;;;5.97;;
6642;SDS011;3357;48.050;7.800;2022-07-23T12:48:25;7.03;;;6.53;;
6642;SDS011;3357;48.050;7.800;2022-07-23T12:50:58;7.20;;;6.70;;
6642;SDS011;3357;48.050;7.800;2022-07-23T12:56:02;7.57;;;6.77;;
6642;SDS011;3357;48.050;7.800;2022-07-23T12:58:38;8.90;;;6.90;;
6642;SDS011;3357;48.050;7.800;2022-07-23T13:01:06;6.43;;;5.93;;
6642;SDS011;3357;48.050;7.800;2022-07-23T13:03:33;6.57;;;6.03;;
6642;SDS011;3357;48.050;7.800;2022-07-23T13:06:01;7.53;;;6.63;;
6642;SDS011;3357;48.050;7.800;2022-07-23T13:08:28;7.63;;;6.50;;
6642;SDS011;3357;48.050;7.800;2022-07-23T13:10:55;9.03;;;6.03;;
6642;SDS011;3357;48.050;7.800;2022-07-23T13:13:21;9.07;;;6.80;;
6642;SDS011;3357;48.050;7.800;2022-07-23T13:15:51;6.93;;;6.30;;
6642;SDS011;3357;48.050;7.800;2022-07-23T13:18:17;10.20;;;7.70;;
6642;SDS011;3357;48.050;7.800;2022-07-23T13:20:43;7.60;;;6.90;;
6642;SDS011;3357;48.050;7.800;2022-07-23T13:23:09;7.77;;;7.00;;
6642;SDS011;3357;48.050;7.800;2022-07-23T13:25:35;6.67;;;6.17;;
6642;SDS011;3357;48.050;7.800;2022-07-23T13:28:00;8.90;;;7.07;;
6642;SDS011;3357;48.050;7.800;2022-07-23T13:30:26;7.40;;;6.70;;
6642;SDS011;3357;48.050;7.800;2022-07-23T13:32:51;6.90;;;6.27;;
6642;SDS011;3357;48.050;7.800;2022-07-23T13:35:17;10.90;;;7.30;;
6642;SDS011;3357;48.050;7.800;2022-07-23T13:37:42;7.83;;;7.13;;
6642;SDS011;3357;48.050;7.800;2022-07-23T13:40:07;7.13;;;6.53;;
6642;SDS011;3357;48.050;7.800;2022-07-23T13:42:33;7.77;;;6.97;;
6642;SDS011;3357;48.050;7.800;2022-07-23T13:44:58;7.90;;;6.93;;
6642;SDS011;3357;48.050;7.800;2022-07-23T13:47:24;8.13;;;7.10;;
6642;SDS011;3357;48.050;7.800;2022-07-23T13:49:49;7.77;;;7.17;;
6642;SDS011;3357;48.050;7.800;2022-07-23T13:52:16;7.63;;;6.83;;
6642;SDS011;3357;48.050;7.800;2022-07-23T13:54:42;7.53;;;6.93;;
6642;SDS011;3357;48.050;7.800;2022-07-23T13:57:07;8.20;;;7.50;;
6642;SDS011;3357;48.050;7.800;2022-07-23T13:59:34;7.70;;;6.90;;
6642;SDS011;3357;48.050;7.800;2022-07-23T14:02:00;7.97;;;7.17;;
6642;SDS011;3357;48.050;7.800;2022-07-23T14:04:26;9.27;;;8.47;;
6642;SDS011;3357;48.050;7.800;2022-07-23T14:06:51;7.27;;;6.77;;
6642;SDS011;3357;48.050;7.800;2022-07-23T14:09:19;7.00;;;6.43;;
6642;SDS011;3357;48.050;7.800;2022-07-23T14:11:44;9.90;;;7.63;;
6642;SDS011;3357;48.050;7.800;2022-07-23T14:14:09;9.00;;;7.30;;
6642;SDS011;3357;48.050;7.800;2022-07-23T14:16:35;10.00;;;7.03;;
6642;SDS011;3357;48.050;7.800;2022-07-23T14:19:00;10.10;;;6.80;;
6642;SDS011;3357;48.050;7.800;2022-07-23T14:21:25;8.47;;;7.10;;
6642;SDS011;3357;48.050;7.800;2022-07-23T14:23:51;9.40;;;6.70;;
6642;SDS011;3357;48.050;7.800;2022-07-23T14:26:16;7.40;;;6.80;;
6642;SDS011;3357;48.050;7.800;2022-07-23T14:28:41;7.90;;;7.20;;
6642;SDS011;3357;48.050;7.800;2022-07-23T14:31:07;7.37;;;6.77;;
6642;SDS011;3357;48.050;7.800;2022-07-23T14:33:35;6.70;;;6.10;;
6642;SDS011;3357;48.050;7.800;2022-07-23T14:36:00;8.40;;;7.53;;
6642;SDS011;3357;48.050;7.800;2022-07-23T14:38:26;7.27;;;6.57;;
6642;SDS011;3357;48.050;7.800;2022-07-23T14:40:52;7.30;;;6.73;;
6642;SDS011;3357;48.050;7.800;2022-07-23T14:43:17;9.63;;;6.50;;
6642;SDS011;3357;48.050;7.800;2022-07-23T14:45:42;7.83;;;7.13;;
6642;SDS011;3357;48.050;7.800;2022-07-23T14:48:08;8.20;;;7.40;;
6642;SDS011;3357;48.050;7.800;2022-07-23T14:50:33;8.00;;;7.30;;
6642;SDS011;3357;48.050;7.800;2022-07-23T14:52:58;7.10;;;6.40;;
6642;SDS011;3357;48.050;7.800;2022-07-23T14:55:24;7.87;;;6.70;;
6642;SDS011;3357;48.050;7.800;2022-07-23T14:57:49;7.87;;;7.13;;
6642;SDS011;3357;48.050;7.800;2022-07-23T15:00:15;7.27;;;6.30;;
6642;SDS011;3357;48.050;7.800;2022-07-23T15:02:43;7.23;;;6.63;;
6642;SDS011;3357;48.050;7.800;2022-07-23T15:05:09;7.33;;;6.70;;
6642;SDS011;3357;48.050;7.800;2022-07-23T15:07:34;7.80;;;6.83;;
6642;SDS011;3357;48.050;7.800;2022-07-23T15:09:59;7.90;;;7.10;;
6642;SDS011;3357;48.050;7.800;2022-07-23T15:12:25;7.27;;;6.53;;
6642;SDS011;3357;48.050;7.800;2022-07-23T15:14:50;7.77;;;7.07;;
6642;SDS011;3357;48.050;7.800;2022-07-23T15:17:15;7.73;;;7.10;;
6642;SDS011;3357;48.050;7.800;2022-07-23T15:19:41;9.47;;;7.90;;
6642;SDS011;3357;48.050;7.800;2022-07-23T15:22:06;7.87;;;7.10;;
6642;SDS011;3357;48.050;7.800;2022-07-23T15:24:32;8.30;;;7.60;;
6642;SDS011;3357;48.050;7.800;2022-07-23T15:27:03;7.03;;;6.53;;
6642;SDS011;3357;48.050;7.800;2022-07-23T15:29:28;7.93;;;7.20;;
6642;SDS011;3357;48.050;7.800;2022-07-23T15:31:54;8.80;;;8.03;;
6642;SDS011;3357;48.050;7.800;2022-07-23T15:34:19;6.80;;;6.30;;
6642;SDS011;3357;48.050;7.800;2022-07-23T15:36:45;9.90;;;6.60;;
6642;SDS011;3357;48.050;7.800;2022-07-23T15:39:10;6.63;;;6.10;;
6642;SDS011;3357;48.050;7.800;2022-07-23T15:41:35;7.93;;;7.23;;
6642;SDS011;3357;48.050;7.800;2022-07-23T15:44:04;7.30;;;6.70;;
6642;SDS011;3357;48.050;7.800;2022-07-23T15:46:29;6.80;;;6.07;;
6642;SDS011;3357;48.050;7.800;2022-07-23T15:48:54;7.70;;;6.90;;
6642;SDS011;3357;48.050;7.800;2022-07-23T15:51:20;8.30;;;7.57;;